Time;durP1;ratioP1;P1;durP2;ratioP2;P2;SDS_P1;SDS_P2;PMS_P1;PMS_P2;Temp;Humidity;BMP_temperature;BMP_pressure;BME280_temperature;BME280_humidity;BME280_pressure;Samples;Min_cycle;Max_cycle;Signal;HPM_P1;HPM_P2
2023/05/02 16:17:59;;;;;;;;;12.50;9.25;;;;;19.83;50.59;101099.97;5132803;27;45708;-68
2023/05/02 16:20:25;;;;;;;;;16.00;13.00;;;;;19.81;50.38;101084.69;5112063;27;45839;-66
2023/05/02 16:22:51;;;;;;;;;22.75;17.75;;;;;20.11;49.92;101109.47;5121542;27;45460;-66
2023/05/02 16:25:17;;;;;;;;;19.50;17.00;;;;;20.18;49.58;101113.19;5132070;27;45460;-66
2023/05/02 16:27:43;;;;;;;;;16.75;16.25;;;;;20.29;48.72;101123.72;5115766;27;45581;-68
2023/05/02 16:30:11;;;;;;;;;18.25;15.50;;;;;20.34;47.59;101110.25;5106556;27;45634;-69
2023/05/02 16:32:36;;;;;;;;;34.67;29.00;;;;;20.27;50.36;101112.03;5113676;27;45350;-69
2023/05/02 16:35:07;;;;;;;;;27.75;20.75;;;;;20.09;50.86;101097.84;5107175;27;45465;-74
2023/05/02 16:37:34;;;;;;;;;23.25;19.25;;;;;20.33;48.71;101113.19;5103463;27;45524;-71
2023/05/02 16:40:00;;;;;;;;;19.80;14.20;;;;;20.75;46.67;101105.28;5115515;27;45545;-67
2023/05/02 16:42:25;;;;;;;;;12.75;11.00;;;;;20.69;47.31;101109.63;5118629;27;45504;-68
2023/05/02 16:44:51;;;;;;;;;20.50;13.50;;;;;20.60;45.98;101097.88;5123655;27;45475;-69
2023/05/02 16:47:17;;;;;;;;;22.00;14.75;;;;;20.56;47.72;101096.56;5112562;27;47012;-68
2023/05/02 16:49:44;;;;;;;;;14.50;12.25;;;;;20.45;47.00;101088.81;5114482;27;45496;-68
2023/05/02 16:52:09;;;;;;;;;13.75;11.25;;;;;20.42;45.84;101083.69;5114532;27;45402;-68
2023/05/02 16:54:35;;;;;;;;;14.00;13.75;;;;;20.43;46.47;101090.91;5116082;27;45452;-77
2023/05/02 16:57:01;;;;;;;;;14.00;12.25;;;;;20.54;46.47;101112.41;5119092;27;46612;-76
2023/05/02 16:59:27;;;;;;;;;12.00;9.00;;;;;20.43;46.31;101091.75;5120192;27;45431;-76
2023/05/02 17:01:53;;;;;;;;;13.00;10.00;;;;;20.44;45.95;101101.69;5116572;27;45494;-76
2023/05/02 17:04:20;;;;;;;;;7.50;4.50;;;;;20.47;45.06;101098.56;5135581;27;45583;-76
2023/05/02 17:06:46;;;;;;;;;10.00;9.75;;;;;20.46;44.93;101096.88;5122155;27;45660;-77
2023/05/02 17:09:13;;;;;;;;;9.40;8.20;;;;;20.44;44.86;101098.94;5116462;27;45431;-76
2023/05/02 17:11:38;;;;;;;;;8.00;7.20;;;;;20.42;43.72;101097.44;5118153;27;45375;-77
2023/05/02 17:14:05;;;;;;;;;9.00;7.50;;;;;20.42;44.61;101097.44;5115694;27;45459;-76
2023/05/02 17:16:30;;;;;;;;;10.75;8.50;;;;;20.45;43.97;101092.41;5119732;27;45994;-83
2023/05/02 17:18:57;;;;;;;;;10.00;9.00;;;;;20.48;43.73;101099.41;5118923;27;45529;-82
2023/05/02 17:21:22;;;;;;;;;10.20;8.80;;;;;20.33;43.59;101085.69;5117111;27;45406;-84
2023/05/02 17:23:48;;;;;;;;;8.50;7.00;;;;;20.32;43.22;101078.50;5127732;27;45451;-83
2023/05/02 17:26:15;;;;;;;;;8.25;7.50;;;;;20.47;43.49;101108.69;5115451;27;46535;-84
2023/05/02 17:28:42;;;;;;;;;6.80;6.20;;;;;20.48;42.10;101110.41;5107842;27;45451;-84
2023/05/02 17:31:09;;;;;;;;;9.80;7.80;;;;;20.44;43.67;101103.59;5110317;27;45439;-83
2023/05/02 17:33:35;;;;;;;;;7.00;7.00;;;;;20.41;41.70;101096.59;5109478;27;45616;-83
2023/05/02 17:36:00;;;;;;;;;11.75;9.25;;;;;20.36;42.06;101092.72;5110697;27;46287;-84
2023/05/02 17:38:26;;;;;;;;;8.00;6.75;;;;;20.26;43.05;101080.09;5102977;27;45455;-84
2023/05/02 17:40:52;;;;;;;;;9.50;7.25;;;;;20.14;43.42;101065.16;5108707;27;45482;-84
2023/05/02 17:43:18;;;;;;;;;8.00;7.00;;;;;20.11;43.90;101077.38;5108577;27;45664;-76
2023/05/02 17:45:44;;;;;;;;;9.75;8.00;;;;;20.28;45.41;101110.13;5109215;27;45571;-76
2023/05/02 17:48:16;;;;;;;;;8.50;7.00;;;;;20.12;46.20;101083.72;5094248;27;45501;-76
2023/05/02 17:50:43;;;;;;;;;6.80;6.80;;;;;20.25;46.21;101102.28;5105287;27;45425;-75
2023/05/02 17:53:09;;;;;;;;;7.00;7.00;;;;;20.28;46.06;101104.63;5102703;27;45518;-76
2023/05/02 17:55:37;;;;;;;;;6.00;6.00;;;;;20.19;46.95;101081.91;5099882;27;45439;-76
2023/05/02 17:58:03;;;;;;;;;8.60;6.60;;;;;20.18;47.04;101078.31;5099824;27;45435;-75
2023/05/02 18:00:29;;;;;;;;;7.50;6.25;;;;;20.11;46.65;101065.50;5092253;27;45788;-72
2023/05/02 18:02:55;;;;;;;;;10.00;9.00;;;;;20.24;47.32;101092.34;5103858;27;45592;-78
2023/05/02 18:05:21;;;;;;;;;8.50;7.00;;;;;20.24;46.60;101092.34;5108582;27;47115;-78
2023/05/02 18:07:48;;;;;;;;;8.60;7.60;;;;;20.21;47.44;101093.56;5099881;27;45396;-75
2023/05/02 18:10:14;;;;;;;;;6.60;6.60;;;;;20.14;47.39;101098.13;5093803;27;45493;-76
2023/05/02 18:12:40;;;;;;;;;7.75;5.25;;;;;20.05;48.07;101088.25;5100173;27;45384;-76
2023/05/02 18:15:08;;;;;;;;;6.50;5.50;;;;;19.99;48.57;101085.22;5099537;27;46509;-75
2023/05/02 18:17:35;;;;;;;;;8.40;6.00;;;;;20.08;48.45;101109.88;5099117;27;45490;-75
2023/05/02 18:20:02;;;;;;;;;3.00;3.00;;;;;19.94;48.53;101089.56;5111432;27;45472;-76
2023/05/02 18:22:28;;;;;;;;;9.50;7.00;;;;;20.02;48.93;101109.56;5099830;27;45498;-75
2023/05/02 18:24:54;;;;;;;;;6.50;5.75;;;;;19.98;49.16;101101.91;5104432;27;46092;-75
2023/05/02 18:27:21;;;;;;;;;6.20;5.20;;;;;19.88;49.01;101096.66;5097892;27;46560;-75
2023/05/02 18:29:46;;;;;;;;;9.50;7.00;;;;;19.89;49.51;101098.38;5108525;27;45337;-76
2023/05/02 18:32:13;;;;;;;;;8.00;5.25;;;;;19.85;49.82;101094.31;5099835;27;45483;-76
2023/05/02 18:34:39;;;;;;;;;7.50;6.25;;;;;19.80;50.01;101096.75;5099285;27;46512;-77
2023/05/02 18:37:06;;;;;;;;;9.00;6.50;;;;;19.79;50.80;101101.38;5097635;27;45442;-76
2023/05/02 18:39:34;;;;;;;;;7.40;5.80;;;;;19.82;50.97;101111.13;5100719;27;45517;-76
2023/05/02 18:42:01;;;;;;;;;9.00;7.00;;;;;19.67;51.42;101089.97;5100007;27;45503;-76
2023/05/02 18:44:28;;;;;;;;;8.25;6.00;;;;;19.79;51.72;101117.00;5098688;27;46432;-76
2023/05/02 18:46:55;;;;;;;;;8.20;5.00;;;;;19.65;51.83;101085.72;5099049;27;45575;-76
2023/05/02 18:49:21;;;;;;;;;6.25;6.25;;;;;19.74;52.17;101108.44;5099116;27;45355;-76
2023/05/02 18:51:46;;;;;;;;;9.00;6.00;;;;;19.74;52.10;101113.94;5097374;27;45642;-76
2023/05/02 18:54:12;;;;;;;;;9.00;6.00;;;;;19.69;52.73;101120.88;5098797;27;46069;-78
2023/05/02 18:56:37;;;;;;;;;7.25;6.00;;;;;19.48;48.50;101115.22;5097334;27;45544;-76
2023/05/02 18:59:03;;;;;;;;;6.50;6.50;;;;;19.25;47.46;101118.81;5099653;27;45739;-77
2023/05/02 19:01:28;;;;;;;;;9.00;7.25;;;;;19.14;47.15;101124.75;5099914;27;45396;-76
2023/05/02 19:03:54;;;;;;;;;6.75;6.00;;;;;18.85;47.31;101120.78;5098823;27;46053;-77
2023/05/02 19:06:20;;;;;;;;;6.25;6.25;;;;;18.94;47.62;101127.09;5097468;27;45473;-72
2023/05/02 19:08:47;;;;;;;;;7.50;5.75;;;;;18.99;48.76;101128.28;5097276;27;45532;-73
2023/05/02 19:11:13;;;;;;;;;6.25;5.50;;;;;18.95;50.45;101121.41;5101387;27;45728;-73
2023/05/02 19:15:53;;;;;;;;;7.75;6.00;;;;;19.32;50.97;101144.50;5056714;28;45468;-69
2023/05/02 19:18:21;;;;;;;;;6.50;6.50;;;;;18.96;51.92;101090.22;5053824;28;45382;-69
2023/05/02 19:20:48;;;;;;;;;8.00;7.60;;;;;19.06;52.24;101126.50;5053640;28;45410;-69
2023/05/02 19:23:15;;;;;;;;;9.25;7.50;;;;;19.05;52.59;101124.81;5054672;28;45427;-69
2023/05/02 19:25:41;;;;;;;;;7.25;7.25;;;;;19.06;52.89;101123.78;5053804;28;45474;-70
2023/05/02 19:28:07;;;;;;;;;5.80;5.00;;;;;19.11;53.05;101130.59;5053769;28;45509;-71
2023/05/02 19:30:32;;;;;;;;;6.75;5.00;;;;;19.05;52.96;101116.56;5054128;28;45397;-71
2023/05/02 19:32:58;;;;;;;;;4.50;4.50;;;;;19.14;52.63;101130.25;5054814;28;45496;-71
2023/05/02 19:35:24;;;;;;;;;7.25;5.75;;;;;19.11;53.05;101122.34;5056973;28;46093;-71
2023/05/02 19:37:49;;;;;;;;;5.50;5.50;;;;;19.14;53.18;101130.25;5059279;28;45423;-71
2023/05/02 19:40:15;;;;;;;;;6.25;5.00;;;;;19.14;53.05;101131.06;5054076;28;45418;-71
2023/05/02 19:42:41;;;;;;;;;6.75;6.25;;;;;19.13;53.24;101128.53;5054176;28;45709;-71
2023/05/02 19:45:08;;;;;;;;;7.00;5.25;;;;;19.13;53.07;101136.75;5053594;28;46408;-71
2023/05/02 19:47:35;;;;;;;;;6.00;6.00;;;;;19.11;53.39;101136.06;5052889;28;45650;-70
2023/05/02 19:50:00;;;;;;;;;5.20;5.20;;;;;19.11;53.18;101141.56;5054072;28;46455;-70
2023/05/02 19:52:26;;;;;;;;;8.00;6.25;;;;;19.05;53.41;101134.91;5053092;28;45681;-70
2023/05/02 19:54:51;;;;;;;;;5.50;5.50;;;;;19.04;53.34;101131.31;5052315;28;47050;-71
2023/05/02 19:57:18;;;;;;;;;5.50;5.50;;;;;19.11;53.50;101144.31;5053102;28;45471;-71
2023/05/02 19:59:43;;;;;;;;;6.00;5.80;;;;;18.98;53.48;101115.59;5053726;28;45380;-70
2023/05/02 20:02:10;;;;;;;;;5.25;5.00;;;;;19.09;53.72;101149.13;5053600;28;45429;-71
2023/05/02 20:04:35;;;;;;;;;4.60;4.00;;;;;19.02;53.74;101138.03;5044701;28;46216;-71
2023/05/02 20:07:01;;;;;;;;;5.00;5.00;;;;;18.93;53.39;101123.50;5052955;28;45452;-70
2023/05/02 20:09:28;;;;;;;;;7.50;4.25;;;;;19.07;53.55;101141.06;5053158;28;45448;-70
2023/05/02 20:11:53;;;;;;;;;5.00;3.25;;;;;19.10;54.68;101154.44;5053391;28;45418;-70
2023/05/02 20:14:19;;;;;;;;;11.75;6.00;;;;;19.11;55.84;101155.28;5059928;27;45988;-67
2023/05/02 20:16:45;;;;;;;;;9.50;5.25;;;;;19.04;53.97;101149.69;5073637;28;45378;-77
2023/05/02 20:19:11;;;;;;;;;6.25;5.00;;;;;19.09;54.81;101160.97;5070718;27;45481;-67
2023/05/02 20:21:36;;;;;;;;;9.00;7.25;;;;;19.04;55.52;101164.25;5071578;28;45985;-68
2023/05/02 20:24:02;;;;;;;;;19.00;10.75;;;;;19.08;57.12;101163.88;5072643;27;45520;-66
2023/05/02 20:26:30;;;;;;;;;8.75;8.00;;;;;19.01;57.08;101152.78;5064319;28;45816;-67
2023/05/02 20:28:57;;;;;;;;;9.50;9.50;;;;;19.14;58.03;101177.72;5061177;28;45394;-67
2023/05/02 20:31:23;;;;;;;;;10.25;9.25;;;;;18.90;57.15;101132.06;5057240;28;45821;-74
2023/05/02 20:33:49;;;;;;;;;9.00;7.00;;;;;19.13;57.13;101155.97;5050294;28;45864;-70
2023/05/02 20:36:16;;;;;;;;;7.60;6.40;;;;;19.16;56.70;101150.09;5063564;28;45430;-69
2023/05/02 20:38:45;;;;;;;;;14.00;9.50;;;;;19.34;56.91;101180.84;5059040;28;45454;-71
2023/05/02 20:41:12;;;;;;;;;13.00;6.75;;;;;19.25;56.74;101165.47;5058971;28;45434;-69
2023/05/02 20:43:38;;;;;;;;;8.80;6.20;;;;;19.31;56.39;101174.88;5056341;28;47293;-71
2023/05/02 20:46:08;;;;;;;;;10.60;9.20;;;;;19.31;56.79;101175.72;5059619;28;45351;-69
2023/05/02 20:48:34;;;;;;;;;10.20;6.20;;;;;19.23;55.64;101173.03;5057854;28;45446;-75
2023/05/02 20:51:00;;;;;;;;;9.50;9.00;;;;;19.20;55.49;101184.38;5062596;28;45485;-75
2023/05/02 20:53:27;;;;;;;;;7.00;5.25;;;;;19.06;53.83;101173.16;5056466;28;45975;-73
2023/05/02 20:55:53;;;;;;;;;8.80;7.00;;;;;19.01;55.63;101172.81;5054578;28;45477;-75
2023/05/02 20:58:18;;;;;;;;;6.00;6.00;;;;;19.13;55.25;101197.13;5054655;28;45504;-75
2023/05/02 21:00:50;;;;;;;;;8.25;7.25;;;;;19.04;55.76;101191.66;5054785;28;45432;-75
2023/05/02 21:03:18;;;;;;;;;5.00;4.75;;;;;19.03;56.15;101189.97;5058397;28;46161;-75
2023/05/02 21:05:44;;;;;;;;;5.20;5.20;;;;;18.94;55.42;101185.53;5057770;28;45326;-74
2023/05/02 21:08:11;;;;;;;;;7.25;5.75;;;;;18.88;56.15;101186.22;5058761;28;45587;-74
2023/05/02 21:10:36;;;;;;;;;8.25;6.00;;;;;18.99;55.75;101196.84;5059631;28;45519;-74
2023/05/02 21:13:01;;;;;;;;;6.50;6.50;;;;;19.01;56.09;101213.13;5058987;28;45428;-74
2023/05/02 21:15:27;;;;;;;;;7.00;5.00;;;;;18.89;55.93;101183.34;5058492;28;45449;-74
2023/05/02 21:18:03;;;;;;;;;10.50;6.75;;;;;18.90;56.01;101182.25;5059094;28;45470;-74
2023/05/02 21:20:29;;;;;;;;;7.25;5.00;;;;;18.93;56.04;101194.81;5055803;28;45516;-75
2023/05/02 21:22:54;;;;;;;;;6.50;6.50;;;;;18.90;55.66;101190.50;5057892;28;46432;-74
2023/05/02 21:25:20;;;;;;;;;10.25;5.00;;;;;18.79;56.18;101170.88;5055816;28;45438;-76
2023/05/02 21:27:46;;;;;;;;;7.75;5.50;;;;;18.90;55.56;101185.00;5057609;28;45390;-74
2023/05/02 21:30:12;;;;;;;;;7.75;6.50;;;;;18.81;56.00;101174.25;5059034;28;45426;-74
2023/05/02 21:32:38;;;;;;;;;7.50;4.50;;;;;18.68;55.74;101153.75;5058440;28;46691;-74
2023/05/02 21:35:03;;;;;;;;;5.25;4.50;;;;;18.77;56.08;101173.78;5057868;28;45416;-73
2023/05/02 21:37:32;;;;;;;;;5.75;5.00;;;;;18.79;56.00;101190.06;5057204;28;45410;-74
2023/05/02 21:39:58;;;;;;;;;6.75;6.00;;;;;18.78;55.93;101191.94;5059030;28;45406;-74
2023/05/02 21:42:24;;;;;;;;;6.50;6.00;;;;;18.81;56.11;101196.19;5058129;28;46341;-74
2023/05/02 21:44:51;;;;;;;;;8.60;5.20;;;;;18.55;55.89;101164.44;5050351;28;45481;-74
2023/05/02 21:47:17;;;;;;;;;10.00;5.00;;;;;18.71;56.07;101185.44;5058095;28;45339;-73
2023/05/02 21:49:43;;;;;;;;;4.75;4.75;;;;;18.79;55.61;101203.78;5057991;28;45448;-73
2023/05/02 21:52:10;;;;;;;;;6.75;5.25;;;;;18.75;56.00;101212.34;5058041;28;45454;-73
2023/05/02 21:54:36;;;;;;;;;8.20;6.20;;;;;18.56;55.42;101180.72;5058057;28;45514;-73
2023/05/02 21:57:01;;;;;;;;;6.75;6.00;;;;;18.64;55.87;101201.78;5063579;28;45409;-74
2023/05/02 21:59:27;;;;;;;;;5.75;5.75;;;;;18.78;55.49;101224.00;5058793;28;45345;-74
2023/05/02 22:01:53;;;;;;;;;7.00;5.25;;;;;18.70;55.54;101220.25;5058223;28;46183;-74
2023/05/02 22:04:19;;;;;;;;;5.25;5.25;;;;;18.72;55.43;101211.84;5058058;28;45947;-74
2023/05/02 22:06:52;;;;;;;;;5.00;4.00;;;;;18.69;55.37;101210.31;5055213;28;45653;-74
2023/05/02 22:09:19;;;;;;;;;8.00;4.25;;;;;18.68;55.67;101205.84;5050234;28;45409;-73
2023/05/02 22:11:45;;;;;;;;;7.20;5.40;;;;;18.62;55.50;101198.34;5058089;28;47081;-73
2023/05/02 22:14:11;;;;;;;;;6.40;5.40;;;;;18.60;55.51;101200.41;5057141;28;45327;-73
2023/05/02 22:16:38;;;;;;;;;9.25;6.75;;;;;18.41;55.09;101157.81;5057766;28;45846;-74
2023/05/02 22:19:10;;;;;;;;;7.00;6.00;;;;;18.58;55.75;101186.88;5058688;28;45409;-74
2023/05/02 22:21:36;;;;;;;;;6.25;6.25;;;;;18.59;55.29;101187.72;5057804;28;45474;-74
2023/05/02 22:24:03;;;;;;;;;6.50;5.25;;;;;18.64;55.40;101201.78;5057006;28;45315;-74
2023/05/02 22:26:29;;;;;;;;;6.75;5.50;;;;;18.57;55.20;101190.66;5056831;28;45445;-74
2023/05/02 22:28:54;;;;;;;;;6.00;6.00;;;;;18.49;55.45;101181.59;5058088;28;45517;-74
2023/05/02 22:31:22;;;;;;;;;8.00;6.50;;;;;18.50;55.15;101189.66;5057426;28;46017;-74
2023/05/02 22:33:48;;;;;;;;;8.20;4.60;;;;;18.46;55.49;101182.81;5057816;28;45659;-74
2023/05/02 22:36:16;;;;;;;;;4.40;4.40;;;;;18.53;55.37;101186.56;5057722;28;45553;-74
2023/05/02 22:38:42;;;;;;;;;5.25;4.25;;;;;18.53;54.99;101199.41;5058177;28;45342;-74
2023/05/02 22:41:08;;;;;;;;;4.75;3.75;;;;;18.44;55.16;101185.72;5056827;28;45480;-74
2023/05/02 22:43:34;;;;;;;;;5.00;5.00;;;;;18.52;55.20;101205.91;5057290;28;45453;-74
2023/05/02 22:46:01;;;;;;;;;6.75;5.00;;;;;18.41;55.31;101183.34;5057700;28;45443;-74
2023/05/02 22:48:26;;;;;;;;;6.00;5.25;;;;;18.49;55.23;101192.56;5057390;28;45574;-74
2023/05/02 22:50:52;;;;;;;;;7.75;6.25;;;;;18.50;55.20;101194.28;5057532;28;45735;-74
2023/05/02 22:53:20;;;;;;;;;10.50;6.50;;;;;18.37;54.95;101165.53;5057496;28;45746;-74
2023/05/02 22:55:46;;;;;;;;;4.75;4.50;;;;;18.51;55.06;101190.47;5043966;28;45432;-74
2023/05/02 22:58:12;;;;;;;;;6.75;5.00;;;;;18.50;54.76;101194.28;5057866;28;45315;-74
2023/05/02 23:00:37;;;;;;;;;5.00;3.50;;;;;18.43;54.99;101186.75;5056302;28;46173;-73
2023/05/02 23:03:05;;;;;;;;;4.50;4.50;;;;;18.41;54.83;101183.34;5057597;28;45346;-73
2023/05/02 23:05:30;;;;;;;;;5.75;5.50;;;;;18.47;54.81;101178.19;5056854;28;45396;-73
2023/05/02 23:07:56;;;;;;;;;5.00;5.00;;;;;18.37;54.59;101168.25;5058814;28;45469;-74
2023/05/02 23:10:22;;;;;;;;;5.50;5.00;;;;;18.40;54.83;101167.94;5065136;28;46898;-74
2023/05/02 23:12:47;;;;;;;;;4.50;4.50;;;;;18.47;54.65;101186.41;5057314;28;45826;-74
2023/05/02 23:15:13;;;;;;;;;5.00;5.00;;;;;18.20;54.55;101131.84;5056773;28;45377;-74
2023/05/02 23:17:39;;;;;;;;;7.75;6.00;;;;;18.42;54.70;101165.88;5057853;28;45390;-74
2023/05/02 23:20:10;;;;;;;;;5.00;5.00;;;;;18.46;54.68;101176.47;5055728;28;46601;-74
2023/05/02 23:22:44;;;;;;;;;5.20;5.20;;;;;18.44;54.58;101165.69;5056378;28;45462;-74
2023/05/02 23:25:10;;;;;;;;;6.40;5.80;;;;;18.38;54.54;101153.53;5056035;28;45448;-74
2023/05/02 23:27:36;;;;;;;;;6.75;6.75;;;;;18.35;54.48;101142.94;5056505;28;45649;-74
2023/05/02 23:30:02;;;;;;;;;7.50;5.00;;;;;18.33;54.55;101139.50;5057049;28;46466;-74
2023/05/02 23:32:28;;;;;;;;;4.60;4.20;;;;;18.30;54.39;101128.06;5056679;28;45347;-74
2023/05/02 23:34:55;;;;;;;;;6.25;5.50;;;;;18.38;54.46;101137.09;5057209;28;45496;-75
2023/05/02 23:37:22;;;;;;;;;8.75;6.50;;;;;18.27;54.27;101113.66;5057193;28;45354;-74
2023/05/02 23:39:48;;;;;;;;;8.00;4.75;;;;;18.28;54.31;101120.03;5056271;28;46350;-74
2023/05/02 23:42:14;;;;;;;;;11.00;5.50;;;;;18.41;54.14;101131.28;5052849;28;45450;-74
2023/05/02 23:44:42;;;;;;;;;4.50;4.50;;;;;18.37;54.30;101120.84;5057055;28;45555;-74
2023/05/02 23:47:13;;;;;;;;;7.75;6.50;;;;;18.39;54.17;101122.38;5057405;28;45373;-74
2023/05/02 23:49:39;;;;;;;;;5.50;5.25;;;;;18.29;53.91;101102.53;5056432;28;45540;-74
2023/05/02 23:52:06;;;;;;;;;6.25;6.25;;;;;18.29;54.39;101102.53;5056720;28;45403;-74
2023/05/02 23:54:32;;;;;;;;;5.50;5.50;;;;;18.32;54.34;101115.88;5055855;28;45573;-74
2023/05/02 23:56:59;;;;;;;;;6.00;4.75;;;;;18.10;54.21;101076.41;5056806;28;45825;-74
2023/05/02 23:59:24;;;;;;;;;5.50;5.50;;;;;18.28;54.18;101098.09;5044160;28;46304;-74
